Aérodrome :
LOGIN :

S'inscrire | Disclaimer

   EN    FR    IT 

 










Légende :    VFR   VFR Marginal   IFR   IFR Intensif   IFR Très Intensif
Visi : 
Plafond : 
>= 8 km
>= 3000ft
5 à 8 km
1000 à 3000 ft
1500m à 5 km
500 à 1000 ft
800 à 1500m
200 à 500 ft
< 800m
< 200 ft
Symboles :   Orages  Brouillard  Fortes neiges  Fortes précipitations  Vent > 20 kt
SIGMETs :   Divers  Orages  Givrage  Turbulence  Onde Orograph.  Cendres Volcan.







- Altitude de l'aérodrome : 796 ft
- Code IATA : SYT
- Voir les cartes d'approche


LFLN - Saint-Yan

DERNIER METAR :
  • 291730Z AUTO 09007KT CAVOK 16/01 Q1011 NOSIG

METARs EXPIRÉS :
  • 291700Z AUTO 09007KT 040V110 CAVOK 17/M00 Q1011 NOSIG
  • 291630Z AUTO 08008KT 040V100 CAVOK 17/00 Q1012 NOSIG
  • 291600Z AUTO 08006KT 050V130 CAVOK 17/M00 Q1012 NOSIG
  • 291530Z AUTO 09006KT 050V130 CAVOK 17/M01 Q1012 NOSIG
  • 291500Z AUTO 08007KT 010V140 CAVOK 17/00 Q1013 NOSIG

TAF TAF LFLN
Valide du 29 à 18h jusqu'au 30 à 03h UTC


291700Z 2918/3003 10005KT CAVOK
PROB40 3000/3003 3000 BR
Pas de NOTAMs connus pour ce terrain.



MET'MAP, la Météo Aéronautique d'un coup d'oeil ! - Copyright ORBIFLY Décembre 2007 - Disclaimer

ORBIFLY MET'MAP TEAM :

Programmation & Développement : Alexandra Zaïnal
Conception & Développement : Baudouin d'Aumeries
Co-Programmation & Développement : Marc-Olivier Méhu
Soutien technique & logistique : Manuel Goepfert

Contact : metmap@orbifly.com




SOURCES & CREDITS :

   NOAA